KDEH

Decorah Municipal Airport

Decorah, Iowa, USA
METAR KDEH 271155Z AUTO 00000KT 10SM CLR 21/20 A2982 RMK AO2
Observed Flight Rules
May-27 @ 11:55 UTC (8 minutes ago) Visual Flight Rules
Visibility Clouds
10 miles
  • Clear skies
Temperatures Readings
Current 21°C / 70°F
Dewpoint 20°C / 68°F
Humidity 94%
Altimeter 29.82" Hg
Pressure 1010 hPa
Elevation 353
METAR KDEH 271155Z AUTO 00000KT 10SM CLR 21/20 A2982 RMK AO2
Observed Flight Rules
May-27 @ 11:55 UTC
(8 minutes ago)
VFR
Clouds
  • Clear skies
Temperature Dewpoint
21°C / 70°F 20°C / 68°F
Humidity Altimeter Pressure
94% 29.82" Hg 1010 hPa